sensor_id;sensor_type;location;lat;lon;timestamp;temperature;humidity
516;DHT22;244;48.508;9.052;2023-02-28T00:01:33;0.70;2.20
516;DHT22;244;48.508;9.052;2023-02-28T00:04:00;0.70;2.90
516;DHT22;244;48.508;9.052;2023-02-28T00:06:27;0.70;2.30
516;DHT22;244;48.508;9.052;2023-02-28T00:08:55;0.70;2.30
516;DHT22;244;48.508;9.052;2023-02-28T00:11:22;0.70;2.40
516;DHT22;244;48.508;9.052;2023-02-28T00:13:49;0.70;2.40
516;DHT22;244;48.508;9.052;2023-02-28T00:16:18;0.70;2.50
516;DHT22;244;48.508;9.052;2023-02-28T00:18:45;0.70;2.60
516;DHT22;244;48.508;9.052;2023-02-28T00:21:14;0.70;2.60
516;DHT22;244;48.508;9.052;2023-02-28T00:23:40;0.70;2.70
516;DHT22;244;48.508;9.052;2023-02-28T00:26:09;0.60;2.70
516;DHT22;244;48.508;9.052;2023-02-28T00:28:36;0.60;2.70
516;DHT22;244;48.508;9.052;2023-02-28T00:31:03;0.60;2.80
516;DHT22;244;48.508;9.052;2023-02-28T00:33:30;0.60;2.80
516;DHT22;244;48.508;9.052;2023-02-28T00:36:05;0.60;2.90
516;DHT22;244;48.508;9.052;2023-02-28T00:38:33;0.60;2.90
516;DHT22;244;48.508;9.052;2023-02-28T00:41:00;0.60;3.00
516;DHT22;244;48.508;9.052;2023-02-28T00:43:32;0.50;2.90
516;DHT22;244;48.508;9.052;2023-02-28T00:45:59;0.50;3.70
516;DHT22;244;48.508;9.052;2023-02-28T00:48:26;0.50;3.10
516;DHT22;244;48.508;9.052;2023-02-28T00:50:53;0.50;3.10
516;DHT22;244;48.508;9.052;2023-02-28T00:53:20;0.50;3.20
516;DHT22;244;48.508;9.052;2023-02-28T00:55:48;0.50;3.20
516;DHT22;244;48.508;9.052;2023-02-28T00:58:15;0.60;3.20
516;DHT22;244;48.508;9.052;2023-02-28T01:00:44;0.60;3.20
516;DHT22;244;48.508;9.052;2023-02-28T01:03:15;0.60;3.20
516;DHT22;244;48.508;9.052;2023-02-28T01:05:42;0.60;3.20
516;DHT22;244;48.508;9.052;2023-02-28T01:08:08;0.60;3.20
516;DHT22;244;48.508;9.052;2023-02-28T01:10:35;0.60;3.20
516;DHT22;244;48.508;9.052;2023-02-28T01:13:04;0.50;3.30
516;DHT22;244;48.508;9.052;2023-02-28T01:15:31;0.50;3.30
516;DHT22;244;48.508;9.052;2023-02-28T01:17:59;0.50;3.50
516;DHT22;244;48.508;9.052;2023-02-28T01:20:26;0.50;3.50
516;DHT22;244;48.508;9.052;2023-02-28T01:22:53;0.50;4.10
516;DHT22;244;48.508;9.052;2023-02-28T01:25:20;0.50;3.50
516;DHT22;244;48.508;9.052;2023-02-28T01:27:47;0.50;3.50
516;DHT22;244;48.508;9.052;2023-02-28T01:30:14;0.50;3.60
516;DHT22;244;48.508;9.052;2023-02-28T01:32:41;0.50;3.70
516;DHT22;244;48.508;9.052;2023-02-28T01:35:10;0.50;3.70
516;DHT22;244;48.508;9.052;2023-02-28T01:37:37;0.50;3.70
516;DHT22;244;48.508;9.052;2023-02-28T01:40:05;0.50;3.80
516;DHT22;244;48.508;9.052;2023-02-28T01:42:32;0.50;3.80
516;DHT22;244;48.508;9.052;2023-02-28T01:45:03;0.50;3.90
516;DHT22;244;48.508;9.052;2023-02-28T01:47:32;0.50;4.60
516;DHT22;244;48.508;9.052;2023-02-28T01:50:03;0.50;3.90
516;DHT22;244;48.508;9.052;2023-02-28T01:52:34;0.50;4.00
516;DHT22;244;48.508;9.052;2023-02-28T01:55:02;0.50;4.10
516;DHT22;244;48.508;9.052;2023-02-28T01:57:34;0.50;4.10
516;DHT22;244;48.508;9.052;2023-02-28T02:00:06;0.50;4.10
516;DHT22;244;48.508;9.052;2023-02-28T02:02:35;0.50;4.20
516;DHT22;244;48.508;9.052;2023-02-28T02:05:05;0.50;4.20
516;DHT22;244;48.508;9.052;2023-02-28T02:07:37;0.50;4.20
516;DHT22;244;48.508;9.052;2023-02-28T02:10:09;0.60;4.30
516;DHT22;244;48.508;9.052;2023-02-28T02:12:56;0.60;4.30
516;DHT22;244;48.508;9.052;2023-02-28T02:15:30;0.60;4.30
516;DHT22;244;48.508;9.052;2023-02-28T02:18:02;0.60;4.20
516;DHT22;244;48.508;9.052;2023-02-28T02:20:49;0.70;4.20
516;DHT22;244;48.508;9.052;2023-02-28T02:26:46;0.70;4.20
516;DHT22;244;48.508;9.052;2023-02-28T02:29:41;0.70;4.20
516;DHT22;244;48.508;9.052;2023-02-28T02:32:34;0.60;4.30
516;DHT22;244;48.508;9.052;2023-02-28T02:35:12;0.60;4.40
516;DHT22;244;48.508;9.052;2023-02-28T02:37:44;0.60;4.50
516;DHT22;244;48.508;9.052;2023-02-28T02:40:16;0.60;4.60
516;DHT22;244;48.508;9.052;2023-02-28T02:42:49;0.50;4.60
516;DHT22;244;48.508;9.052;2023-02-28T02:45:21;0.50;4.70
516;DHT22;244;48.508;9.052;2023-02-28T02:47:50;0.50;4.80
516;DHT22;244;48.508;9.052;2023-02-28T02:50:24;0.50;4.80
516;DHT22;244;48.508;9.052;2023-02-28T02:52:54;0.50;4.90
516;DHT22;244;48.508;9.052;2023-02-28T02:55:23;0.50;4.90
516;DHT22;244;48.508;9.052;2023-02-28T02:57:52;0.50;4.90
516;DHT22;244;48.508;9.052;2023-02-28T03:00:24;0.50;5.00
516;DHT22;244;48.508;9.052;2023-02-28T03:02:54;0.50;5.00
516;DHT22;244;48.508;9.052;2023-02-28T03:05:26;0.50;5.00
516;DHT22;244;48.508;9.052;2023-02-28T03:07:54;0.50;5.00
516;DHT22;244;48.508;9.052;2023-02-28T03:10:35;0.60;5.10
516;DHT22;244;48.508;9.052;2023-02-28T03:13:17;0.60;5.10
516;DHT22;244;48.508;9.052;2023-02-28T03:15:58;0.60;5.00
516;DHT22;244;48.508;9.052;2023-02-28T03:18:33;0.70;5.10
516;DHT22;244;48.508;9.052;2023-02-28T03:21:12;0.70;5.00
516;DHT22;244;48.508;9.052;2023-02-28T03:23:48;0.80;5.10
516;DHT22;244;48.508;9.052;2023-02-28T03:26:21;0.80;5.00
516;DHT22;244;48.508;9.052;2023-02-28T03:28:54;0.90;5.10
516;DHT22;244;48.508;9.052;2023-02-28T03:31:26;0.90;5.00
516;DHT22;244;48.508;9.052;2023-02-28T03:33:59;1.00;5.10
516;DHT22;244;48.508;9.052;2023-02-28T03:36:31;1.00;5.10
516;DHT22;244;48.508;9.052;2023-02-28T03:39:02;1.00;5.10
516;DHT22;244;48.508;9.052;2023-02-28T03:41:35;1.00;5.10
516;DHT22;244;48.508;9.052;2023-02-28T03:44:06;1.00;5.10
516;DHT22;244;48.508;9.052;2023-02-28T03:46:44;1.00;5.10
516;DHT22;244;48.508;9.052;2023-02-28T03:49:15;1.00;5.10
516;DHT22;244;48.508;9.052;2023-02-28T03:51:46;1.00;5.10
516;DHT22;244;48.508;9.052;2023-02-28T03:54:17;1.00;5.60
516;DHT22;244;48.508;9.052;2023-02-28T03:56:50;1.10;5.30
516;DHT22;244;48.508;9.052;2023-02-28T03:59:21;1.00;5.30
516;DHT22;244;48.508;9.052;2023-02-28T04:01:51;1.10;5.50
516;DHT22;244;48.508;9.052;2023-02-28T04:04:18;1.10;5.50
516;DHT22;244;48.508;9.052;2023-02-28T04:06:49;1.10;5.60
516;DHT22;244;48.508;9.052;2023-02-28T04:09:17;1.00;5.50
516;DHT22;244;48.508;9.052;2023-02-28T04:11:45;1.10;5.60
516;DHT22;244;48.508;9.052;2023-02-28T04:14:14;1.10;5.60
516;DHT22;244;48.508;9.052;2023-02-28T04:16:41;1.10;5.60
516;DHT22;244;48.508;9.052;2023-02-28T04:19:10;1.10;5.60
516;DHT22;244;48.508;9.052;2023-02-28T04:21:39;1.10;5.90
516;DHT22;244;48.508;9.052;2023-02-28T04:24:10;1.10;5.80
516;DHT22;244;48.508;9.052;2023-02-28T04:26:40;1.10;5.80
516;DHT22;244;48.508;9.052;2023-02-28T04:29:09;1.10;5.90
516;DHT22;244;48.508;9.052;2023-02-28T04:31:37;1.10;5.90
516;DHT22;244;48.508;9.052;2023-02-28T04:34:04;1.10;5.90
516;DHT22;244;48.508;9.052;2023-02-28T04:36:31;1.10;6.50
516;DHT22;244;48.508;9.052;2023-02-28T04:38:58;1.10;6.00
516;DHT22;244;48.508;9.052;2023-02-28T04:41:26;1.10;6.10
516;DHT22;244;48.508;9.052;2023-02-28T04:43:53;1.20;6.20
516;DHT22;244;48.508;9.052;2023-02-28T04:46:22;1.20;6.30
516;DHT22;244;48.508;9.052;2023-02-28T04:48:49;1.20;6.30
516;DHT22;244;48.508;9.052;2023-02-28T04:51:17;1.20;6.40
516;DHT22;244;48.508;9.052;2023-02-28T04:53:45;1.20;6.40
516;DHT22;244;48.508;9.052;2023-02-28T04:56:14;1.20;6.50
516;DHT22;244;48.508;9.052;2023-02-28T04:58:42;1.20;6.50
516;DHT22;244;48.508;9.052;2023-02-28T05:01:18;1.20;6.60
516;DHT22;244;48.508;9.052;2023-02-28T05:03:46;1.20;6.80
516;DHT22;244;48.508;9.052;2023-02-28T05:06:13;1.10;6.80
516;DHT22;244;48.508;9.052;2023-02-28T05:08:40;1.20;6.90
516;DHT22;244;48.508;9.052;2023-02-28T05:11:13;1.20;7.60
516;DHT22;244;48.508;9.052;2023-02-28T05:13:42;1.20;7.00
516;DHT22;244;48.508;9.052;2023-02-28T05:16:09;1.20;7.00
516;DHT22;244;48.508;9.052;2023-02-28T05:18:36;1.20;7.00
516;DHT22;244;48.508;9.052;2023-02-28T05:21:03;1.20;7.70
516;DHT22;244;48.508;9.052;2023-02-28T05:23:30;1.20;7.00
516;DHT22;244;48.508;9.052;2023-02-28T05:25:57;1.30;7.10
516;DHT22;244;48.508;9.052;2023-02-28T05:28:24;1.30;7.10
516;DHT22;244;48.508;9.052;2023-02-28T05:30:52;1.30;7.20
516;DHT22;244;48.508;9.052;2023-02-28T05:33:19;1.30;7.30
516;DHT22;244;48.508;9.052;2023-02-28T05:35:46;1.30;7.30
516;DHT22;244;48.508;9.052;2023-02-28T05:38:13;1.30;7.40
516;DHT22;244;48.508;9.052;2023-02-28T05:40:39;1.30;7.50
516;DHT22;244;48.508;9.052;2023-02-28T05:43:10;1.30;7.50
516;DHT22;244;48.508;9.052;2023-02-28T05:45:37;1.30;7.60
516;DHT22;244;48.508;9.052;2023-02-28T05:48:06;1.30;7.70
516;DHT22;244;48.508;9.052;2023-02-28T05:50:32;1.30;7.70
516;DHT22;244;48.508;9.052;2023-02-28T05:52:59;1.20;7.70
516;DHT22;244;48.508;9.052;2023-02-28T05:55:26;1.20;7.90
516;DHT22;244;48.508;9.052;2023-02-28T05:57:53;1.20;7.90
516;DHT22;244;48.508;9.052;2023-02-28T06:00:22;1.20;7.90
516;DHT22;244;48.508;9.052;2023-02-28T06:02:49;1.20;8.00
516;DHT22;244;48.508;9.052;2023-02-28T06:05:18;1.20;8.60
516;DHT22;244;48.508;9.052;2023-02-28T06:07:45;1.20;8.20
516;DHT22;244;48.508;9.052;2023-02-28T06:10:13;1.20;8.20
516;DHT22;244;48.508;9.052;2023-02-28T06:12:40;1.20;8.20
516;DHT22;244;48.508;9.052;2023-02-28T06:15:12;1.20;8.20
516;DHT22;244;48.508;9.052;2023-02-28T06:17:40;1.20;8.20
516;DHT22;244;48.508;9.052;2023-02-28T06:20:08;1.20;8.20
516;DHT22;244;48.508;9.052;2023-02-28T06:22:37;1.20;8.20
516;DHT22;244;48.508;9.052;2023-02-28T06:25:05;1.30;8.90
516;DHT22;244;48.508;9.052;2023-02-28T06:27:33;1.30;8.20
516;DHT22;244;48.508;9.052;2023-02-28T06:30:00;1.30;8.20
516;DHT22;244;48.508;9.052;2023-02-28T06:32:27;1.30;8.20
516;DHT22;244;48.508;9.052;2023-02-28T06:34:54;1.30;8.10
516;DHT22;244;48.508;9.052;2023-02-28T06:37:23;1.30;8.70
516;DHT22;244;48.508;9.052;2023-02-28T06:39:54;1.30;8.00
516;DHT22;244;48.508;9.052;2023-02-28T06:42:21;1.40;8.00
516;DHT22;244;48.508;9.052;2023-02-28T06:44:50;1.40;7.90
516;DHT22;244;48.508;9.052;2023-02-28T06:47:17;1.40;7.90
516;DHT22;244;48.508;9.052;2023-02-28T06:49:44;1.50;7.90
516;DHT22;244;48.508;9.052;2023-02-28T06:52:11;1.50;7.80
516;DHT22;244;48.508;9.052;2023-02-28T06:54:38;1.50;7.70
516;DHT22;244;48.508;9.052;2023-02-28T06:57:06;1.50;7.60
516;DHT22;244;48.508;9.052;2023-02-28T06:59:33;1.60;8.30
516;DHT22;244;48.508;9.052;2023-02-28T07:02:02;1.60;7.50
516;DHT22;244;48.508;9.052;2023-02-28T07:04:28;1.60;7.50
516;DHT22;244;48.508;9.052;2023-02-28T07:06:55;1.60;7.40
516;DHT22;244;48.508;9.052;2023-02-28T07:09:22;1.60;7.40
516;DHT22;244;48.508;9.052;2023-02-28T07:11:49;1.60;7.30
516;DHT22;244;48.508;9.052;2023-02-28T07:14:18;1.70;7.30
516;DHT22;244;48.508;9.052;2023-02-28T07:16:45;1.70;7.20
516;DHT22;244;48.508;9.052;2023-02-28T07:19:12;1.80;7.20
516;DHT22;244;48.508;9.052;2023-02-28T07:21:39;1.80;7.10
516;DHT22;244;48.508;9.052;2023-02-28T07:24:06;1.80;6.80
516;DHT22;244;48.508;9.052;2023-02-28T07:26:33;1.90;6.80
516;DHT22;244;48.508;9.052;2023-02-28T07:29:00;1.90;6.70
516;DHT22;244;48.508;9.052;2023-02-28T07:31:29;1.90;6.60
516;DHT22;244;48.508;9.052;2023-02-28T07:33:56;1.90;7.10
516;DHT22;244;48.508;9.052;2023-02-28T07:36:22;1.90;6.40
516;DHT22;244;48.508;9.052;2023-02-28T07:38:49;2.00;6.30
516;DHT22;244;48.508;9.052;2023-02-28T07:41:17;2.00;6.20
516;DHT22;244;48.508;9.052;2023-02-28T07:43:44;2.00;6.10
516;DHT22;244;48.508;9.052;2023-02-28T07:46:14;2.10;6.20
516;DHT22;244;48.508;9.052;2023-02-28T07:48:45;2.10;6.20
516;DHT22;244;48.508;9.052;2023-02-28T07:51:14;2.10;6.20
516;DHT22;244;48.508;9.052;2023-02-28T07:53:44;2.10;6.20
516;DHT22;244;48.508;9.052;2023-02-28T07:56:11;2.10;6.20
516;DHT22;244;48.508;9.052;2023-02-28T07:58:38;2.10;6.20
516;DHT22;244;48.508;9.052;2023-02-28T08:01:06;2.20;6.20
516;DHT22;244;48.508;9.052;2023-02-28T08:03:33;2.20;6.10
516;DHT22;244;48.508;9.052;2023-02-28T08:06:02;2.20;6.00
516;DHT22;244;48.508;9.052;2023-02-28T08:08:29;2.30;6.00
516;DHT22;244;48.508;9.052;2023-02-28T08:10:58;2.30;5.90
516;DHT22;244;48.508;9.052;2023-02-28T08:13:26;2.40;6.40
516;DHT22;244;48.508;9.052;2023-02-28T08:15:54;2.40;5.70
516;DHT22;244;48.508;9.052;2023-02-28T08:18:21;2.40;5.70
516;DHT22;244;48.508;9.052;2023-02-28T08:20:48;2.50;5.70
516;DHT22;244;48.508;9.052;2023-02-28T08:23:16;2.50;5.70
516;DHT22;244;48.508;9.052;2023-02-28T08:25:43;2.60;5.60
516;DHT22;244;48.508;9.052;2023-02-28T08:28:10;2.60;5.50
516;DHT22;244;48.508;9.052;2023-02-28T08:30:37;2.60;5.30
516;DHT22;244;48.508;9.052;2023-02-28T08:33:06;2.70;5.40
516;DHT22;244;48.508;9.052;2023-02-28T08:35:35;2.70;5.20
516;DHT22;244;48.508;9.052;2023-02-28T08:38:03;2.70;5.20
516;DHT22;244;48.508;9.052;2023-02-28T08:40:31;2.70;5.00
516;DHT22;244;48.508;9.052;2023-02-28T08:42:58;2.80;5.10
516;DHT22;244;48.508;9.052;2023-02-28T08:45:25;2.80;5.00
516;DHT22;244;48.508;9.052;2023-02-28T08:47:54;2.80;4.90
516;DHT22;244;48.508;9.052;2023-02-28T08:50:21;2.90;4.90
516;DHT22;244;48.508;9.052;2023-02-28T08:52:48;3.00;4.90
516;DHT22;244;48.508;9.052;2023-02-28T08:55:15;3.10;4.90
516;DHT22;244;48.508;9.052;2023-02-28T08:57:43;3.30;5.50
516;DHT22;244;48.508;9.052;2023-02-28T09:00:11;3.40;4.70
516;DHT22;244;48.508;9.052;2023-02-28T09:02:39;3.50;4.50
516;DHT22;244;48.508;9.052;2023-02-28T09:05:08;3.60;5.10
516;DHT22;244;48.508;9.052;2023-02-28T09:07:35;3.70;4.40
516;DHT22;244;48.508;9.052;2023-02-28T09:10:02;3.80;4.10
516;DHT22;244;48.508;9.052;2023-02-28T09:12:33;3.90;3.90
516;DHT22;244;48.508;9.052;2023-02-28T09:15:02;4.00;3.70
516;DHT22;244;48.508;9.052;2023-02-28T09:17:29;4.20;3.60
516;DHT22;244;48.508;9.052;2023-02-28T09:19:56;4.30;3.30
516;DHT22;244;48.508;9.052;2023-02-28T09:22:23;4.40;3.10
516;DHT22;244;48.508;9.052;2023-02-28T09:24:50;4.60;3.30
516;DHT22;244;48.508;9.052;2023-02-28T09:27:17;4.60;2.80
516;DHT22;244;48.508;9.052;2023-02-28T09:29:44;4.70;2.70
516;DHT22;244;48.508;9.052;2023-02-28T09:32:12;4.80;2.40
516;DHT22;244;48.508;9.052;2023-02-28T09:34:39;4.90;2.00
516;DHT22;244;48.508;9.052;2023-02-28T09:37:06;4.90;1.80
516;DHT22;244;48.508;9.052;2023-02-28T09:39:33;5.00;1.80
516;DHT22;244;48.508;9.052;2023-02-28T09:42:02;5.00;1.50
516;DHT22;244;48.508;9.052;2023-02-28T09:44:33;5.00;1.20
516;DHT22;244;48.508;9.052;2023-02-28T09:47:07;5.00;1.20
516;DHT22;244;48.508;9.052;2023-02-28T09:49:41;5.00;1.00
516;DHT22;244;48.508;9.052;2023-02-28T09:52:12;5.10;1.00
516;DHT22;244;48.508;9.052;2023-02-28T09:54:40;5.20;1.00
516;DHT22;244;48.508;9.052;2023-02-28T09:57:11;5.30;1.30
516;DHT22;244;48.508;9.052;2023-02-28T09:59:50;5.40;1.00
516;DHT22;244;48.508;9.052;2023-02-28T10:02:46;5.60;1.00
516;DHT22;244;48.508;9.052;2023-02-28T10:05:19;5.60;1.00
516;DHT22;244;48.508;9.052;2023-02-28T10:08:02;5.70;1.00
516;DHT22;244;48.508;9.052;2023-02-28T10:10:35;5.70;1.00
516;DHT22;244;48.508;9.052;2023-02-28T10:13:06;5.80;1.00
516;DHT22;244;48.508;9.052;2023-02-28T10:15:40;6.00;1.00
516;DHT22;244;48.508;9.052;2023-02-28T10:18:12;6.10;1.00
516;DHT22;244;48.508;9.052;2023-02-28T10:20:42;6.20;1.00
516;DHT22;244;48.508;9.052;2023-02-28T10:23:14;6.30;1.00
516;DHT22;244;48.508;9.052;2023-02-28T10:25:46;6.40;1.00
516;DHT22;244;48.508;9.052;2023-02-28T10:28:15;6.50;1.00
516;DHT22;244;48.508;9.052;2023-02-28T10:30:46;6.60;1.00
516;DHT22;244;48.508;9.052;2023-02-28T10:33:19;6.60;1.00
516;DHT22;244;48.508;9.052;2023-02-28T10:35:49;6.70;1.00
516;DHT22;244;48.508;9.052;2023-02-28T10:38:20;6.80;1.00
516;DHT22;244;48.508;9.052;2023-02-28T10:40:47;6.90;1.00
516;DHT22;244;48.508;9.052;2023-02-28T10:43:20;6.90;1.00
516;DHT22;244;48.508;9.052;2023-02-28T10:45:58;7.00;1.00
516;DHT22;244;48.508;9.052;2023-02-28T10:48:37;7.00;1.00
516;DHT22;244;48.508;9.052;2023-02-28T10:51:08;7.10;1.00
516;DHT22;244;48.508;9.052;2023-02-28T10:53:45;7.10;1.00
516;DHT22;244;48.508;9.052;2023-02-28T10:56:17;7.10;1.00
516;DHT22;244;48.508;9.052;2023-02-28T10:58:54;7.10;1.00
516;DHT22;244;48.508;9.052;2023-02-28T11:01:26;7.00;1.00
516;DHT22;244;48.508;9.052;2023-02-28T11:04:00;7.00;1.00
516;DHT22;244;48.508;9.052;2023-02-28T11:06:30;7.00;1.00
516;DHT22;244;48.508;9.052;2023-02-28T11:08:59;7.10;1.00
516;DHT22;244;48.508;9.052;2023-02-28T11:11:28;7.20;1.00
516;DHT22;244;48.508;9.052;2023-02-28T11:14:03;7.30;1.00
516;DHT22;244;48.508;9.052;2023-02-28T11:16:33;7.40;1.00
516;DHT22;244;48.508;9.052;2023-02-28T11:19:01;7.50;1.00
516;DHT22;244;48.508;9.052;2023-02-28T11:21:31;7.50;1.00
516;DHT22;244;48.508;9.052;2023-02-28T11:24:02;7.50;1.00
516;DHT22;244;48.508;9.052;2023-02-28T11:26:39;7.50;1.00
516;DHT22;244;48.508;9.052;2023-02-28T11:29:11;7.40;1.00
516;DHT22;244;48.508;9.052;2023-02-28T11:31:39;7.40;1.00
516;DHT22;244;48.508;9.052;2023-02-28T11:34:24;7.50;1.00
516;DHT22;244;48.508;9.052;2023-02-28T11:36:54;7.60;1.00
516;DHT22;244;48.508;9.052;2023-02-28T11:39:22;7.70;1.00
516;DHT22;244;48.508;9.052;2023-02-28T11:42:07;7.80;1.00
516;DHT22;244;48.508;9.052;2023-02-28T11:44:56;8.00;1.00
516;DHT22;244;48.508;9.052;2023-02-28T11:47:32;8.20;1.00
516;DHT22;244;48.508;9.052;2023-02-28T11:53:01;8.30;1.00
516;DHT22;244;48.508;9.052;2023-02-28T11:55:34;8.30;1.00
516;DHT22;244;48.508;9.052;2023-02-28T12:01:27;8.20;1.00
516;DHT22;244;48.508;9.052;2023-02-28T12:04:08;8.20;1.00
516;DHT22;244;48.508;9.052;2023-02-28T12:06:43;8.50;1.00
516;DHT22;244;48.508;9.052;2023-02-28T12:09:27;8.60;1.00
516;DHT22;244;48.508;9.052;2023-02-28T12:12:01;8.40;1.00
516;DHT22;244;48.508;9.052;2023-02-28T12:17:48;8.30;1.00
516;DHT22;244;48.508;9.052;2023-02-28T12:20:25;8.50;1.00
516;DHT22;244;48.508;9.052;2023-02-28T12:22:59;8.60;1.00
516;DHT22;244;48.508;9.052;2023-02-28T12:26:02;8.70;1.00
516;DHT22;244;48.508;9.052;2023-02-28T12:28:37;8.60;1.00
516;DHT22;244;48.508;9.052;2023-02-28T12:31:14;8.50;1.00
516;DHT22;244;48.508;9.052;2023-02-28T12:33:46;8.50;1.00
516;DHT22;244;48.508;9.052;2023-02-28T12:36:17;8.40;1.00
516;DHT22;244;48.508;9.052;2023-02-28T12:38:50;8.30;1.00
516;DHT22;244;48.508;9.052;2023-02-28T12:41:26;8.20;1.00
516;DHT22;244;48.508;9.052;2023-02-28T12:44:00;8.00;1.00
516;DHT22;244;48.508;9.052;2023-02-28T12:46:32;7.90;1.00
516;DHT22;244;48.508;9.052;2023-02-28T12:49:04;7.70;1.00
516;DHT22;244;48.508;9.052;2023-02-28T12:51:32;7.40;1.00
516;DHT22;244;48.508;9.052;2023-02-28T12:54:07;7.20;1.00
516;DHT22;244;48.508;9.052;2023-02-28T12:56:45;7.00;1.00
516;DHT22;244;48.508;9.052;2023-02-28T12:59:23;6.90;1.00
516;DHT22;244;48.508;9.052;2023-02-28T13:02:29;6.80;1.00
516;DHT22;244;48.508;9.052;2023-02-28T13:08:23;7.00;1.00
516;DHT22;244;48.508;9.052;2023-02-28T13:10:56;7.10;1.00
516;DHT22;244;48.508;9.052;2023-02-28T13:13:26;7.30;1.00
516;DHT22;244;48.508;9.052;2023-02-28T13:16:04;7.40;1.00
516;DHT22;244;48.508;9.052;2023-02-28T13:18:34;7.60;1.00
516;DHT22;244;48.508;9.052;2023-02-28T13:21:03;7.80;1.00
516;DHT22;244;48.508;9.052;2023-02-28T13:24:00;8.00;1.00
516;DHT22;244;48.508;9.052;2023-02-28T13:29:34;8.20;1.00
516;DHT22;244;48.508;9.052;2023-02-28T13:35:36;8.20;1.00
516;DHT22;244;48.508;9.052;2023-02-28T13:38:15;8.10;1.00
516;DHT22;244;48.508;9.052;2023-02-28T13:40:43;8.10;1.00
516;DHT22;244;48.508;9.052;2023-02-28T13:43:10;8.10;1.00
516;DHT22;244;48.508;9.052;2023-02-28T13:45:40;8.10;1.00
516;DHT22;244;48.508;9.052;2023-02-28T13:48:29;8.10;1.00
516;DHT22;244;48.508;9.052;2023-02-28T13:50:56;8.20;1.00
516;DHT22;244;48.508;9.052;2023-02-28T13:53:40;8.30;1.00
516;DHT22;244;48.508;9.052;2023-02-28T13:56:31;8.50;1.00
516;DHT22;244;48.508;9.052;2023-02-28T13:59:04;8.70;1.00
516;DHT22;244;48.508;9.052;2023-02-28T14:01:51;8.80;1.00
516;DHT22;244;48.508;9.052;2023-02-28T14:04:46;8.60;1.00
516;DHT22;244;48.508;9.052;2023-02-28T14:07:21;8.60;1.00
516;DHT22;244;48.508;9.052;2023-02-28T14:09:56;8.50;1.00
516;DHT22;244;48.508;9.052;2023-02-28T14:12:58;8.40;1.00
516;DHT22;244;48.508;9.052;2023-02-28T14:15:34;8.30;1.00
516;DHT22;244;48.508;9.052;2023-02-28T14:18:05;8.20;1.00
516;DHT22;244;48.508;9.052;2023-02-28T14:20:34;8.10;1.00
516;DHT22;244;48.508;9.052;2023-02-28T14:23:06;8.10;1.00
516;DHT22;244;48.508;9.052;2023-02-28T14:25:40;8.00;1.00
516;DHT22;244;48.508;9.052;2023-02-28T14:28:18;8.00;1.00
516;DHT22;244;48.508;9.052;2023-02-28T14:30:57;8.10;1.00
516;DHT22;244;48.508;9.052;2023-02-28T14:33:45;8.20;1.00
516;DHT22;244;48.508;9.052;2023-02-28T14:36:18;8.30;1.00
516;DHT22;244;48.508;9.052;2023-02-28T14:38:49;8.30;1.00
516;DHT22;244;48.508;9.052;2023-02-28T14:41:22;8.40;1.00
516;DHT22;244;48.508;9.052;2023-02-28T14:43:52;8.50;1.00
516;DHT22;244;48.508;9.052;2023-02-28T14:46:20;8.50;1.00
516;DHT22;244;48.508;9.052;2023-02-28T14:48:48;8.60;1.00
516;DHT22;244;48.508;9.052;2023-02-28T14:51:21;8.60;1.00
516;DHT22;244;48.508;9.052;2023-02-28T14:53:52;8.60;1.00
516;DHT22;244;48.508;9.052;2023-02-28T14:56:24;8.50;1.00
516;DHT22;244;48.508;9.052;2023-02-28T14:58:54;8.40;1.00
516;DHT22;244;48.508;9.052;2023-02-28T15:01:24;8.40;1.00
516;DHT22;244;48.508;9.052;2023-02-28T15:03:59;8.30;1.00
516;DHT22;244;48.508;9.052;2023-02-28T15:06:28;8.30;1.00
516;DHT22;244;48.508;9.052;2023-02-28T15:09:10;8.30;1.00
516;DHT22;244;48.508;9.052;2023-02-28T15:11:38;8.30;1.00
516;DHT22;244;48.508;9.052;2023-02-28T15:14:06;8.40;1.00
516;DHT22;244;48.508;9.052;2023-02-28T15:16:36;8.40;1.00
516;DHT22;244;48.508;9.052;2023-02-28T15:19:06;8.50;1.00
516;DHT22;244;48.508;9.052;2023-02-28T15:21:38;8.60;1.00
516;DHT22;244;48.508;9.052;2023-02-28T15:24:07;8.60;1.00
516;DHT22;244;48.508;9.052;2023-02-28T15:26:39;8.50;1.00
516;DHT22;244;48.508;9.052;2023-02-28T15:29:11;8.50;1.00
516;DHT22;244;48.508;9.052;2023-02-28T15:31:42;8.40;1.00
516;DHT22;244;48.508;9.052;2023-02-28T15:34:18;8.40;1.00
516;DHT22;244;48.508;9.052;2023-02-28T15:36:47;8.50;1.00
516;DHT22;244;48.508;9.052;2023-02-28T15:39:19;8.50;1.00
516;DHT22;244;48.508;9.052;2023-02-28T15:41:47;8.60;1.00
516;DHT22;244;48.508;9.052;2023-02-28T15:44:24;8.60;1.00
516;DHT22;244;48.508;9.052;2023-02-28T15:46:58;8.60;1.00
516;DHT22;244;48.508;9.052;2023-02-28T15:49:27;8.60;1.00
516;DHT22;244;48.508;9.052;2023-02-28T15:51:57;8.60;1.00
516;DHT22;244;48.508;9.052;2023-02-28T15:54:28;8.60;1.00
516;DHT22;244;48.508;9.052;2023-02-28T15:56:56;8.50;1.00
516;DHT22;244;48.508;9.052;2023-02-28T15:59:26;8.50;1.00
516;DHT22;244;48.508;9.052;2023-02-28T16:02:16;8.50;1.00
516;DHT22;244;48.508;9.052;2023-02-28T16:04:59;8.50;1.00
516;DHT22;244;48.508;9.052;2023-02-28T16:07:28;8.60;1.00
516;DHT22;244;48.508;9.052;2023-02-28T16:09:55;8.60;1.00
516;DHT22;244;48.508;9.052;2023-02-28T16:12:26;8.70;1.00
516;DHT22;244;48.508;9.052;2023-02-28T16:14:56;8.70;1.00
516;DHT22;244;48.508;9.052;2023-02-28T16:17:25;8.60;1.00
516;DHT22;244;48.508;9.052;2023-02-28T16:19:53;8.60;1.00
516;DHT22;244;48.508;9.052;2023-02-28T16:22:20;8.60;1.00
516;DHT22;244;48.508;9.052;2023-02-28T16:24:49;8.60;1.00
516;DHT22;244;48.508;9.052;2023-02-28T16:27:19;8.60;1.00
516;DHT22;244;48.508;9.052;2023-02-28T16:29:47;8.50;1.00
516;DHT22;244;48.508;9.052;2023-02-28T16:32:15;8.30;1.00
516;DHT22;244;48.508;9.052;2023-02-28T16:34:43;8.00;1.00
516;DHT22;244;48.508;9.052;2023-02-28T16:37:12;7.80;1.00
516;DHT22;244;48.508;9.052;2023-02-28T16:39:40;7.60;1.00
516;DHT22;244;48.508;9.052;2023-02-28T16:42:15;7.50;1.00
516;DHT22;244;48.508;9.052;2023-02-28T16:44:42;7.30;1.00
516;DHT22;244;48.508;9.052;2023-02-28T16:47:10;7.20;1.00
516;DHT22;244;48.508;9.052;2023-02-28T16:49:38;7.00;1.00
516;DHT22;244;48.508;9.052;2023-02-28T16:52:07;6.90;1.00
516;DHT22;244;48.508;9.052;2023-02-28T16:54:34;6.80;1.00
516;DHT22;244;48.508;9.052;2023-02-28T16:57:02;6.60;1.00
516;DHT22;244;48.508;9.052;2023-02-28T16:59:31;6.50;1.00
516;DHT22;244;48.508;9.052;2023-02-28T17:01:58;6.40;1.00
516;DHT22;244;48.508;9.052;2023-02-28T17:04:25;6.30;1.00
516;DHT22;244;48.508;9.052;2023-02-28T17:06:53;6.20;1.00
516;DHT22;244;48.508;9.052;2023-02-28T17:09:21;6.00;1.00
516;DHT22;244;48.508;9.052;2023-02-28T17:11:49;6.00;1.00
516;DHT22;244;48.508;9.052;2023-02-28T17:14:16;5.90;1.00
516;DHT22;244;48.508;9.052;2023-02-28T17:16:44;5.80;1.00
516;DHT22;244;48.508;9.052;2023-02-28T17:19:14;5.70;1.00
516;DHT22;244;48.508;9.052;2023-02-28T17:21:42;5.60;1.00
516;DHT22;244;48.508;9.052;2023-02-28T17:24:10;5.60;1.00
516;DHT22;244;48.508;9.052;2023-02-28T17:26:38;5.60;1.00
516;DHT22;244;48.508;9.052;2023-02-28T17:29:06;5.60;1.00
516;DHT22;244;48.508;9.052;2023-02-28T17:31:39;5.50;1.00
516;DHT22;244;48.508;9.052;2023-02-28T17:34:07;5.40;1.00
516;DHT22;244;48.508;9.052;2023-02-28T17:36:34;5.30;1.00
516;DHT22;244;48.508;9.052;2023-02-28T17:39:02;5.30;1.00
516;DHT22;244;48.508;9.052;2023-02-28T17:41:29;5.20;1.00
516;DHT22;244;48.508;9.052;2023-02-28T17:43:56;5.10;1.00
516;DHT22;244;48.508;9.052;2023-02-28T17:46:24;5.10;1.00
516;DHT22;244;48.508;9.052;2023-02-28T17:48:52;5.00;1.00
516;DHT22;244;48.508;9.052;2023-02-28T17:51:23;4.90;1.00
516;DHT22;244;48.508;9.052;2023-02-28T17:53:50;4.90;1.00
516;DHT22;244;48.508;9.052;2023-02-28T17:56:19;4.80;1.00